sensor_id;sensor_type;location;lat;lon;timestamp;temperature;humidity
14144;DHT22;7152;48.348;10.980;2023-05-07T00:01:06;13.20;99.90
14144;DHT22;7152;48.348;10.980;2023-05-07T00:03:32;13.20;99.90
14144;DHT22;7152;48.348;10.980;2023-05-07T00:05:58;13.10;99.90
14144;DHT22;7152;48.348;10.980;2023-05-07T00:08:23;13.20;99.90
14144;DHT22;7152;48.348;10.980;2023-05-07T00:10:49;13.10;99.90
14144;DHT22;7152;48.348;10.980;2023-05-07T00:13:15;13.10;99.90
14144;DHT22;7152;48.348;10.980;2023-05-07T00:15:40;13.10;99.90
14144;DHT22;7152;48.348;10.980;2023-05-07T00:18:06;13.10;99.90
14144;DHT22;7152;48.348;10.980;2023-05-07T00:20:32;13.10;99.90
14144;DHT22;7152;48.348;10.980;2023-05-07T00:22:57;13.00;99.90
14144;DHT22;7152;48.348;10.980;2023-05-07T00:25:23;13.00;99.90
14144;DHT22;7152;48.348;10.980;2023-05-07T00:27:49;13.00;99.90
14144;DHT22;7152;48.348;10.980;2023-05-07T00:30:14;13.00;99.90
14144;DHT22;7152;48.348;10.980;2023-05-07T00:32:40;13.00;99.90
14144;DHT22;7152;48.348;10.980;2023-05-07T00:35:06;13.00;99.90
14144;DHT22;7152;48.348;10.980;2023-05-07T00:37:32;13.00;99.90
14144;DHT22;7152;48.348;10.980;2023-05-07T00:39:58;13.10;99.90
14144;DHT22;7152;48.348;10.980;2023-05-07T00:42:24;13.10;99.90
14144;DHT22;7152;48.348;10.980;2023-05-07T00:44:49;13.10;99.90
14144;DHT22;7152;48.348;10.980;2023-05-07T00:47:16;13.10;99.90
14144;DHT22;7152;48.348;10.980;2023-05-07T00:49:42;13.20;99.90
14144;DHT22;7152;48.348;10.980;2023-05-07T00:52:11;13.10;99.90
14144;DHT22;7152;48.348;10.980;2023-05-07T00:54:37;13.10;99.90
14144;DHT22;7152;48.348;10.980;2023-05-07T00:57:03;13.00;99.90
14144;DHT22;7152;48.348;10.980;2023-05-07T00:59:31;13.00;99.90
14144;DHT22;7152;48.348;10.980;2023-05-07T01:01:57;13.00;99.90
14144;DHT22;7152;48.348;10.980;2023-05-07T01:04:22;13.00;99.90
14144;DHT22;7152;48.348;10.980;2023-05-07T01:06:48;13.00;99.90
14144;DHT22;7152;48.348;10.980;2023-05-07T01:09:14;13.00;99.90
14144;DHT22;7152;48.348;10.980;2023-05-07T01:11:40;12.90;99.90
14144;DHT22;7152;48.348;10.980;2023-05-07T01:14:06;12.90;99.90
14144;DHT22;7152;48.348;10.980;2023-05-07T01:16:32;12.80;99.90
14144;DHT22;7152;48.348;10.980;2023-05-07T01:18:58;12.90;99.90
14144;DHT22;7152;48.348;10.980;2023-05-07T01:21:25;12.90;99.90
14144;DHT22;7152;48.348;10.980;2023-05-07T01:23:52;12.80;99.90
14144;DHT22;7152;48.348;10.980;2023-05-07T01:26:19;12.80;99.90
14144;DHT22;7152;48.348;10.980;2023-05-07T01:28:45;12.80;99.90
14144;DHT22;7152;48.348;10.980;2023-05-07T01:31:12;12.80;99.90
14144;DHT22;7152;48.348;10.980;2023-05-07T01:33:40;12.80;99.90
14144;DHT22;7152;48.348;10.980;2023-05-07T01:36:08;12.80;99.90
14144;DHT22;7152;48.348;10.980;2023-05-07T01:38:35;12.80;99.90
14144;DHT22;7152;48.348;10.980;2023-05-07T01:41:02;12.80;99.90
14144;DHT22;7152;48.348;10.980;2023-05-07T01:43:29;12.80;99.90
14144;DHT22;7152;48.348;10.980;2023-05-07T01:45:55;12.80;99.90
14144;DHT22;7152;48.348;10.980;2023-05-07T01:48:22;12.80;99.90
14144;DHT22;7152;48.348;10.980;2023-05-07T01:50:48;12.80;99.90
14144;DHT22;7152;48.348;10.980;2023-05-07T01:53:14;12.70;99.90
14144;DHT22;7152;48.348;10.980;2023-05-07T01:55:40;12.70;99.90
14144;DHT22;7152;48.348;10.980;2023-05-07T01:58:06;12.70;99.90
14144;DHT22;7152;48.348;10.980;2023-05-07T02:00:31;12.60;99.90
14144;DHT22;7152;48.348;10.980;2023-05-07T02:02:57;12.60;99.90
14144;DHT22;7152;48.348;10.980;2023-05-07T02:05:23;12.60;99.90
14144;DHT22;7152;48.348;10.980;2023-05-07T02:07:49;12.60;99.90
14144;DHT22;7152;48.348;10.980;2023-05-07T02:10:14;12.60;99.90
14144;DHT22;7152;48.348;10.980;2023-05-07T02:12:40;12.50;99.90
14144;DHT22;7152;48.348;10.980;2023-05-07T02:15:06;12.50;99.90
14144;DHT22;7152;48.348;10.980;2023-05-07T02:17:32;12.50;99.90
14144;DHT22;7152;48.348;10.980;2023-05-07T02:19:58;12.40;99.90
14144;DHT22;7152;48.348;10.980;2023-05-07T02:22:24;12.40;99.90
14144;DHT22;7152;48.348;10.980;2023-05-07T02:24:50;12.40;99.90
14144;DHT22;7152;48.348;10.980;2023-05-07T02:27:16;12.40;99.90
14144;DHT22;7152;48.348;10.980;2023-05-07T02:29:41;12.40;99.90
14144;DHT22;7152;48.348;10.980;2023-05-07T02:32:07;12.40;99.90
14144;DHT22;7152;48.348;10.980;2023-05-07T02:34:33;12.30;99.90
14144;DHT22;7152;48.348;10.980;2023-05-07T02:36:58;12.30;99.90
14144;DHT22;7152;48.348;10.980;2023-05-07T02:39:24;12.20;99.90
14144;DHT22;7152;48.348;10.980;2023-05-07T02:41:50;12.20;99.90
14144;DHT22;7152;48.348;10.980;2023-05-07T02:44:15;12.30;99.90
14144;DHT22;7152;48.348;10.980;2023-05-07T02:46:41;12.30;99.90
14144;DHT22;7152;48.348;10.980;2023-05-07T02:49:06;12.30;99.90
14144;DHT22;7152;48.348;10.980;2023-05-07T02:51:32;12.30;99.90
14144;DHT22;7152;48.348;10.980;2023-05-07T02:53:58;12.20;99.90
14144;DHT22;7152;48.348;10.980;2023-05-07T02:56:26;12.20;99.90
14144;DHT22;7152;48.348;10.980;2023-05-07T02:58:51;12.20;99.90
14144;DHT22;7152;48.348;10.980;2023-05-07T03:01:17;12.20;99.90
14144;DHT22;7152;48.348;10.980;2023-05-07T03:03:43;12.20;99.90
14144;DHT22;7152;48.348;10.980;2023-05-07T03:06:09;12.20;99.90
14144;DHT22;7152;48.348;10.980;2023-05-07T03:08:35;12.20;99.90
14144;DHT22;7152;48.348;10.980;2023-05-07T03:11:02;12.10;99.90
14144;DHT22;7152;48.348;10.980;2023-05-07T03:13:27;12.10;99.90
14144;DHT22;7152;48.348;10.980;2023-05-07T03:15:53;12.10;99.90
14144;DHT22;7152;48.348;10.980;2023-05-07T03:18:19;12.20;99.90
14144;DHT22;7152;48.348;10.980;2023-05-07T03:20:45;12.10;99.90
14144;DHT22;7152;48.348;10.980;2023-05-07T03:23:11;12.10;99.90
14144;DHT22;7152;48.348;10.980;2023-05-07T03:25:37;12.10;99.90
14144;DHT22;7152;48.348;10.980;2023-05-07T03:28:02;12.20;99.90
14144;DHT22;7152;48.348;10.980;2023-05-07T03:30:28;12.10;99.90
14144;DHT22;7152;48.348;10.980;2023-05-07T03:32:54;12.10;99.90
14144;DHT22;7152;48.348;10.980;2023-05-07T03:35:19;12.10;99.90
14144;DHT22;7152;48.348;10.980;2023-05-07T03:37:45;12.10;99.90
14144;DHT22;7152;48.348;10.980;2023-05-07T03:40:11;12.20;99.90
14144;DHT22;7152;48.348;10.980;2023-05-07T03:42:37;12.20;99.90
14144;DHT22;7152;48.348;10.980;2023-05-07T03:45:03;12.20;99.90
14144;DHT22;7152;48.348;10.980;2023-05-07T03:47:29;12.20;99.90
14144;DHT22;7152;48.348;10.980;2023-05-07T03:49:55;12.10;99.90
14144;DHT22;7152;48.348;10.980;2023-05-07T03:52:20;12.00;99.90
14144;DHT22;7152;48.348;10.980;2023-05-07T03:54:51;11.90;99.90
14144;DHT22;7152;48.348;10.980;2023-05-07T03:57:17;11.80;99.90
14144;DHT22;7152;48.348;10.980;2023-05-07T03:59:43;11.80;99.90
14144;DHT22;7152;48.348;10.980;2023-05-07T04:02:08;11.70;99.90
14144;DHT22;7152;48.348;10.980;2023-05-07T04:04:34;11.70;99.90
14144;DHT22;7152;48.348;10.980;2023-05-07T04:06:59;11.60;99.90
14144;DHT22;7152;48.348;10.980;2023-05-07T04:09:26;11.60;99.90
14144;DHT22;7152;48.348;10.980;2023-05-07T04:11:51;11.60;99.90
14144;DHT22;7152;48.348;10.980;2023-05-07T04:14:17;11.50;99.90
14144;DHT22;7152;48.348;10.980;2023-05-07T04:16:42;11.50;99.90
14144;DHT22;7152;48.348;10.980;2023-05-07T04:19:08;11.50;99.90
14144;DHT22;7152;48.348;10.980;2023-05-07T04:21:33;11.40;99.90
14144;DHT22;7152;48.348;10.980;2023-05-07T04:23:59;11.50;99.90
14144;DHT22;7152;48.348;10.980;2023-05-07T04:26:25;11.50;99.90
14144;DHT22;7152;48.348;10.980;2023-05-07T04:28:51;11.50;99.90
14144;DHT22;7152;48.348;10.980;2023-05-07T04:31:16;11.50;99.90
14144;DHT22;7152;48.348;10.980;2023-05-07T04:33:42;11.50;99.90
14144;DHT22;7152;48.348;10.980;2023-05-07T04:36:07;11.40;99.90
14144;DHT22;7152;48.348;10.980;2023-05-07T04:38:33;11.40;99.90
14144;DHT22;7152;48.348;10.980;2023-05-07T04:41:06;11.50;99.90
14144;DHT22;7152;48.348;10.980;2023-05-07T04:43:32;11.50;99.90
14144;DHT22;7152;48.348;10.980;2023-05-07T04:45:57;11.50;99.90
14144;DHT22;7152;48.348;10.980;2023-05-07T04:48:24;11.50;99.90
14144;DHT22;7152;48.348;10.980;2023-05-07T04:50:50;11.60;99.90
14144;DHT22;7152;48.348;10.980;2023-05-07T04:53:16;11.70;99.90
14144;DHT22;7152;48.348;10.980;2023-05-07T04:55:43;11.80;99.90
14144;DHT22;7152;48.348;10.980;2023-05-07T04:58:09;11.80;99.90
14144;DHT22;7152;48.348;10.980;2023-05-07T05:00:34;11.80;99.90
14144;DHT22;7152;48.348;10.980;2023-05-07T05:03:00;11.90;99.90
14144;DHT22;7152;48.348;10.980;2023-05-07T05:05:26;11.90;99.90
14144;DHT22;7152;48.348;10.980;2023-05-07T05:07:51;11.90;99.90
14144;DHT22;7152;48.348;10.980;2023-05-07T05:10:17;12.00;99.90
14144;DHT22;7152;48.348;10.980;2023-05-07T05:12:43;12.10;99.90
14144;DHT22;7152;48.348;10.980;2023-05-07T05:15:11;12.10;99.90
14144;DHT22;7152;48.348;10.980;2023-05-07T05:17:36;12.10;99.90
14144;DHT22;7152;48.348;10.980;2023-05-07T05:20:02;12.10;99.90
14144;DHT22;7152;48.348;10.980;2023-05-07T05:22:28;12.10;99.90
14144;DHT22;7152;48.348;10.980;2023-05-07T05:24:56;12.20;99.90
14144;DHT22;7152;48.348;10.980;2023-05-07T05:27:21;12.30;99.90
14144;DHT22;7152;48.348;10.980;2023-05-07T05:29:47;12.40;99.90
14144;DHT22;7152;48.348;10.980;2023-05-07T05:32:13;12.50;99.90
14144;DHT22;7152;48.348;10.980;2023-05-07T05:34:38;12.50;99.90
14144;DHT22;7152;48.348;10.980;2023-05-07T05:37:04;12.60;99.90
14144;DHT22;7152;48.348;10.980;2023-05-07T05:39:29;12.60;99.90
14144;DHT22;7152;48.348;10.980;2023-05-07T05:41:55;12.70;99.90
14144;DHT22;7152;48.348;10.980;2023-05-07T05:44:21;12.70;99.90
14144;DHT22;7152;48.348;10.980;2023-05-07T05:46:46;12.80;99.90
14144;DHT22;7152;48.348;10.980;2023-05-07T05:49:12;12.90;99.90
14144;DHT22;7152;48.348;10.980;2023-05-07T05:51:38;13.00;99.90
14144;DHT22;7152;48.348;10.980;2023-05-07T05:54:03;13.10;99.90
14144;DHT22;7152;48.348;10.980;2023-05-07T05:56:30;13.20;99.90
14144;DHT22;7152;48.348;10.980;2023-05-07T05:58:55;13.20;99.90
14144;DHT22;7152;48.348;10.980;2023-05-07T06:01:21;13.30;99.90
14144;DHT22;7152;48.348;10.980;2023-05-07T06:03:46;13.40;99.90
14144;DHT22;7152;48.348;10.980;2023-05-07T06:06:12;13.50;99.90
14144;DHT22;7152;48.348;10.980;2023-05-07T06:08:39;13.50;99.90
14144;DHT22;7152;48.348;10.980;2023-05-07T06:11:05;13.60;99.90
14144;DHT22;7152;48.348;10.980;2023-05-07T06:13:31;13.60;99.90
14144;DHT22;7152;48.348;10.980;2023-05-07T06:15:56;13.70;99.90
14144;DHT22;7152;48.348;10.980;2023-05-07T06:18:22;13.80;99.90
14144;DHT22;7152;48.348;10.980;2023-05-07T06:20:47;13.90;99.90
14144;DHT22;7152;48.348;10.980;2023-05-07T06:23:14;14.00;99.90
14144;DHT22;7152;48.348;10.980;2023-05-07T06:25:39;14.00;99.90
14144;DHT22;7152;48.348;10.980;2023-05-07T06:28:05;14.10;99.90
14144;DHT22;7152;48.348;10.980;2023-05-07T06:30:31;14.20;99.90
14144;DHT22;7152;48.348;10.980;2023-05-07T06:32:57;14.20;99.90
14144;DHT22;7152;48.348;10.980;2023-05-07T06:35:22;14.30;99.90
14144;DHT22;7152;48.348;10.980;2023-05-07T06:37:48;14.40;99.90
14144;DHT22;7152;48.348;10.980;2023-05-07T06:40:13;14.50;99.90
14144;DHT22;7152;48.348;10.980;2023-05-07T06:42:39;14.60;99.90
14144;DHT22;7152;48.348;10.980;2023-05-07T06:45:06;14.70;99.90
14144;DHT22;7152;48.348;10.980;2023-05-07T06:47:31;14.80;99.90
14144;DHT22;7152;48.348;10.980;2023-05-07T06:49:57;14.90;99.90
14144;DHT22;7152;48.348;10.980;2023-05-07T06:52:23;15.00;99.90
14144;DHT22;7152;48.348;10.980;2023-05-07T06:54:48;15.10;99.90
14144;DHT22;7152;48.348;10.980;2023-05-07T06:57:14;15.20;99.90
14144;DHT22;7152;48.348;10.980;2023-05-07T06:59:40;15.30;99.90
14144;DHT22;7152;48.348;10.980;2023-05-07T07:02:06;15.40;99.90
14144;DHT22;7152;48.348;10.980;2023-05-07T07:04:31;15.50;99.90
14144;DHT22;7152;48.348;10.980;2023-05-07T07:06:57;15.60;99.90
14144;DHT22;7152;48.348;10.980;2023-05-07T07:09:23;15.70;99.90
14144;DHT22;7152;48.348;10.980;2023-05-07T07:11:48;15.80;99.90
14144;DHT22;7152;48.348;10.980;2023-05-07T07:14:14;15.80;99.90
14144;DHT22;7152;48.348;10.980;2023-05-07T07:16:40;15.90;99.90
14144;DHT22;7152;48.348;10.980;2023-05-07T07:19:06;16.00;99.90
14144;DHT22;7152;48.348;10.980;2023-05-07T07:21:32;16.10;99.90
14144;DHT22;7152;48.348;10.980;2023-05-07T07:23:57;16.20;99.90
14144;DHT22;7152;48.348;10.980;2023-05-07T07:26:23;16.30;99.90
14144;DHT22;7152;48.348;10.980;2023-05-07T07:28:49;16.40;99.90
14144;DHT22;7152;48.348;10.980;2023-05-07T07:31:14;16.60;99.90
14144;DHT22;7152;48.348;10.980;2023-05-07T07:33:40;16.70;99.90
14144;DHT22;7152;48.348;10.980;2023-05-07T07:36:06;16.90;99.90
14144;DHT22;7152;48.348;10.980;2023-05-07T07:38:32;17.00;99.90
14144;DHT22;7152;48.348;10.980;2023-05-07T07:40:58;17.10;99.90
14144;DHT22;7152;48.348;10.980;2023-05-07T07:43:24;17.20;99.90
14144;DHT22;7152;48.348;10.980;2023-05-07T07:45:49;17.40;99.90
14144;DHT22;7152;48.348;10.980;2023-05-07T07:48:15;17.50;99.90
14144;DHT22;7152;48.348;10.980;2023-05-07T07:50:41;17.60;99.90
14144;DHT22;7152;48.348;10.980;2023-05-07T07:53:06;17.70;99.90
14144;DHT22;7152;48.348;10.980;2023-05-07T07:55:32;17.90;99.90
14144;DHT22;7152;48.348;10.980;2023-05-07T07:57:58;18.00;99.90
14144;DHT22;7152;48.348;10.980;2023-05-07T08:00:23;18.10;99.90
14144;DHT22;7152;48.348;10.980;2023-05-07T08:02:49;18.20;99.90
14144;DHT22;7152;48.348;10.980;2023-05-07T08:05:15;18.30;99.90
14144;DHT22;7152;48.348;10.980;2023-05-07T08:07:41;18.40;99.90
14144;DHT22;7152;48.348;10.980;2023-05-07T08:10:06;18.60;99.90
14144;DHT22;7152;48.348;10.980;2023-05-07T08:12:32;18.70;99.90
14144;DHT22;7152;48.348;10.980;2023-05-07T08:14:58;18.80;99.90
14144;DHT22;7152;48.348;10.980;2023-05-07T08:17:24;19.00;99.90
14144;DHT22;7152;48.348;10.980;2023-05-07T08:19:50;19.10;99.90
14144;DHT22;7152;48.348;10.980;2023-05-07T08:22:15;19.30;99.90
14144;DHT22;7152;48.348;10.980;2023-05-07T08:24:43;19.40;99.90
14144;DHT22;7152;48.348;10.980;2023-05-07T08:27:08;19.50;99.90
14144;DHT22;7152;48.348;10.980;2023-05-07T08:29:34;19.50;99.90
14144;DHT22;7152;48.348;10.980;2023-05-07T08:32:00;19.70;99.90
14144;DHT22;7152;48.348;10.980;2023-05-07T08:34:25;19.90;99.90
14144;DHT22;7152;48.348;10.980;2023-05-07T08:36:51;20.00;99.90
14144;DHT22;7152;48.348;10.980;2023-05-07T08:39:16;20.10;99.90
14144;DHT22;7152;48.348;10.980;2023-05-07T08:41:44;20.20;99.90
14144;DHT22;7152;48.348;10.980;2023-05-07T08:44:15;20.20;99.90
14144;DHT22;7152;48.348;10.980;2023-05-07T08:46:42;20.30;99.90
14144;DHT22;7152;48.348;10.980;2023-05-07T08:49:09;20.50;99.90
14144;DHT22;7152;48.348;10.980;2023-05-07T08:51:35;20.60;99.90
14144;DHT22;7152;48.348;10.980;2023-05-07T08:54:01;20.70;99.90
14144;DHT22;7152;48.348;10.980;2023-05-07T08:56:28;20.80;99.90
14144;DHT22;7152;48.348;10.980;2023-05-07T08:58:54;20.90;99.90
14144;DHT22;7152;48.348;10.980;2023-05-07T09:01:24;21.10;99.90
14144;DHT22;7152;48.348;10.980;2023-05-07T09:03:50;21.10;99.90
14144;DHT22;7152;48.348;10.980;2023-05-07T09:06:16;21.30;99.90
14144;DHT22;7152;48.348;10.980;2023-05-07T09:08:49;21.40;99.90
14144;DHT22;7152;48.348;10.980;2023-05-07T09:11:16;21.50;99.90
14144;DHT22;7152;48.348;10.980;2023-05-07T09:13:42;21.70;99.90
14144;DHT22;7152;48.348;10.980;2023-05-07T09:16:12;21.90;99.90
14144;DHT22;7152;48.348;10.980;2023-05-07T09:18:44;22.00;99.90
14144;DHT22;7152;48.348;10.980;2023-05-07T09:21:19;22.00;99.90
14144;DHT22;7152;48.348;10.980;2023-05-07T09:23:45;22.10;99.90
14144;DHT22;7152;48.348;10.980;2023-05-07T09:26:11;22.20;99.90
14144;DHT22;7152;48.348;10.980;2023-05-07T09:28:40;22.40;99.90
14144;DHT22;7152;48.348;10.980;2023-05-07T09:31:07;22.40;99.90
14144;DHT22;7152;48.348;10.980;2023-05-07T09:33:32;22.50;99.90
14144;DHT22;7152;48.348;10.980;2023-05-07T09:35:58;22.60;99.90
14144;DHT22;7152;48.348;10.980;2023-05-07T09:38:27;22.80;99.90
14144;DHT22;7152;48.348;10.980;2023-05-07T09:41:08;22.90;99.90
14144;DHT22;7152;48.348;10.980;2023-05-07T09:43:36;23.00;99.90
14144;DHT22;7152;48.348;10.980;2023-05-07T09:46:05;23.20;99.90
14144;DHT22;7152;48.348;10.980;2023-05-07T09:48:34;23.20;99.90
14144;DHT22;7152;48.348;10.980;2023-05-07T09:51:02;23.30;99.90
14144;DHT22;7152;48.348;10.980;2023-05-07T09:53:30;23.40;99.90
14144;DHT22;7152;48.348;10.980;2023-05-07T09:55:57;23.50;99.90
14144;DHT22;7152;48.348;10.980;2023-05-07T09:58:24;23.70;99.90
14144;DHT22;7152;48.348;10.980;2023-05-07T10:00:51;23.80;99.90
14144;DHT22;7152;48.348;10.980;2023-05-07T10:03:19;24.00;99.90
14144;DHT22;7152;48.348;10.980;2023-05-07T10:05:46;24.10;99.90
14144;DHT22;7152;48.348;10.980;2023-05-07T10:08:13;24.20;99.90
14144;DHT22;7152;48.348;10.980;2023-05-07T10:10:40;24.30;99.90
14144;DHT22;7152;48.348;10.980;2023-05-07T10:13:06;24.30;99.90
14144;DHT22;7152;48.348;10.980;2023-05-07T10:15:36;24.40;99.90
14144;DHT22;7152;48.348;10.980;2023-05-07T10:18:03;24.20;99.90
14144;DHT22;7152;48.348;10.980;2023-05-07T10:20:29;24.10;99.90
14144;DHT22;7152;48.348;10.980;2023-05-07T10:22:57;24.10;99.90
14144;DHT22;7152;48.348;10.980;2023-05-07T10:25:29;24.30;99.90
14144;DHT22;7152;48.348;10.980;2023-05-07T10:27:59;24.40;99.90
14144;DHT22;7152;48.348;10.980;2023-05-07T10:30:33;24.60;99.90
14144;DHT22;7152;48.348;10.980;2023-05-07T10:33:05;24.80;99.90
14144;DHT22;7152;48.348;10.980;2023-05-07T10:35:37;25.00;99.90
14144;DHT22;7152;48.348;10.980;2023-05-07T10:38:04;25.20;99.90
14144;DHT22;7152;48.348;10.980;2023-05-07T10:40:31;25.60;99.90
14144;DHT22;7152;48.348;10.980;2023-05-07T10:42:58;25.90;99.90
14144;DHT22;7152;48.348;10.980;2023-05-07T10:45:26;26.40;99.90
14144;DHT22;7152;48.348;10.980;2023-05-07T10:48:14;26.70;99.90
14144;DHT22;7152;48.348;10.980;2023-05-07T10:50:42;26.70;99.90
14144;DHT22;7152;48.348;10.980;2023-05-07T10:55:46;26.90;99.40
14144;DHT22;7152;48.348;10.980;2023-05-07T11:00:48;26.70;99.10
14144;DHT22;7152;48.348;10.980;2023-05-07T11:03:14;26.50;99.10
14144;DHT22;7152;48.348;10.980;2023-05-07T11:05:41;26.70;98.70
14144;DHT22;7152;48.348;10.980;2023-05-07T11:08:07;27.00;98.50
14144;DHT22;7152;48.348;10.980;2023-05-07T11:10:59;27.20;98.20
14144;DHT22;7152;48.348;10.980;2023-05-07T11:13:47;27.50;96.60
14144;DHT22;7152;48.348;10.980;2023-05-07T11:16:39;27.60;95.80
14144;DHT22;7152;48.348;10.980;2023-05-07T11:19:05;27.70;95.10
14144;DHT22;7152;48.348;10.980;2023-05-07T11:21:37;27.80;95.20
14144;DHT22;7152;48.348;10.980;2023-05-07T11:24:04;28.00;94.90
14144;DHT22;7152;48.348;10.980;2023-05-07T11:26:41;28.30;95.20
14144;DHT22;7152;48.348;10.980;2023-05-07T11:29:21;28.50;94.70
14144;DHT22;7152;48.348;10.980;2023-05-07T11:31:51;28.10;94.50
14144;DHT22;7152;48.348;10.980;2023-05-07T11:34:25;28.20;94.00
14144;DHT22;7152;48.348;10.980;2023-05-07T11:36:51;28.20;94.20
14144;DHT22;7152;48.348;10.980;2023-05-07T11:39:28;28.40;94.30
14144;DHT22;7152;48.348;10.980;2023-05-07T11:41:54;28.50;93.60
14144;DHT22;7152;48.348;10.980;2023-05-07T11:44:19;28.80;93.80
14144;DHT22;7152;48.348;10.980;2023-05-07T11:46:45;28.90;92.80
14144;DHT22;7152;48.348;10.980;2023-05-07T11:49:11;29.10;92.90
14144;DHT22;7152;48.348;10.980;2023-05-07T11:51:37;29.40;92.50
14144;DHT22;7152;48.348;10.980;2023-05-07T11:54:04;29.70;92.70
14144;DHT22;7152;48.348;10.980;2023-05-07T11:56:34;29.90;92.20
14144;DHT22;7152;48.348;10.980;2023-05-07T11:59:01;30.30;91.50
14144;DHT22;7152;48.348;10.980;2023-05-07T12:01:26;30.30;90.70
14144;DHT22;7152;48.348;10.980;2023-05-07T12:03:52;30.60;90.80
14144;DHT22;7152;48.348;10.980;2023-05-07T12:06:18;30.60;90.30
14144;DHT22;7152;48.348;10.980;2023-05-07T12:08:45;30.40;89.90
14144;DHT22;7152;48.348;10.980;2023-05-07T12:11:14;30.20;89.30
14144;DHT22;7152;48.348;10.980;2023-05-07T12:13:42;30.10;89.20
14144;DHT22;7152;48.348;10.980;2023-05-07T12:16:07;30.20;88.80
14144;DHT22;7152;48.348;10.980;2023-05-07T12:18:37;30.10;88.30
14144;DHT22;7152;48.348;10.980;2023-05-07T12:21:05;30.20;88.20
14144;DHT22;7152;48.348;10.980;2023-05-07T12:23:31;30.20;88.00
14144;DHT22;7152;48.348;10.980;2023-05-07T12:25:57;30.40;87.20
14144;DHT22;7152;48.348;10.980;2023-05-07T12:28:24;30.00;85.50
14144;DHT22;7152;48.348;10.980;2023-05-07T12:30:50;29.80;86.20
14144;DHT22;7152;48.348;10.980;2023-05-07T12:33:25;29.90;86.60
14144;DHT22;7152;48.348;10.980;2023-05-07T12:35:52;30.10;86.20
14144;DHT22;7152;48.348;10.980;2023-05-07T12:38:18;30.00;87.10
14144;DHT22;7152;48.348;10.980;2023-05-07T12:40:47;29.90;87.30
14144;DHT22;7152;48.348;10.980;2023-05-07T12:43:17;29.90;87.30
14144;DHT22;7152;48.348;10.980;2023-05-07T12:45:44;30.00;87.10
14144;DHT22;7152;48.348;10.980;2023-05-07T12:48:10;29.90;86.80
14144;DHT22;7152;48.348;10.980;2023-05-07T12:50:36;29.80;86.30
14144;DHT22;7152;48.348;10.980;2023-05-07T12:53:04;29.70;87.20
14144;DHT22;7152;48.348;10.980;2023-05-07T12:55:47;29.50;86.80
14144;DHT22;7152;48.348;10.980;2023-05-07T12:58:18;29.80;86.80
14144;DHT22;7152;48.348;10.980;2023-05-07T13:00:45;29.70;86.80
14144;DHT22;7152;48.348;10.980;2023-05-07T13:03:15;29.50;86.40
14144;DHT22;7152;48.348;10.980;2023-05-07T13:05:45;29.40;86.00
14144;DHT22;7152;48.348;10.980;2023-05-07T13:08:11;29.40;86.10
14144;DHT22;7152;48.348;10.980;2023-05-07T13:10:36;29.30;86.50
14144;DHT22;7152;48.348;10.980;2023-05-07T13:13:02;29.10;86.20
14144;DHT22;7152;48.348;10.980;2023-05-07T13:15:28;29.00;87.10
14144;DHT22;7152;48.348;10.980;2023-05-07T13:17:54;28.70;87.50
14144;DHT22;7152;48.348;10.980;2023-05-07T13:20:20;28.70;88.00
14144;DHT22;7152;48.348;10.980;2023-05-07T13:22:46;28.70;88.00
14144;DHT22;7152;48.348;10.980;2023-05-07T13:25:12;28.70;88.10
14144;DHT22;7152;48.348;10.980;2023-05-07T13:27:37;28.70;88.70
14144;DHT22;7152;48.348;10.980;2023-05-07T13:30:05;28.50;88.30
14144;DHT22;7152;48.348;10.980;2023-05-07T13:32:32;28.50;87.70
14144;DHT22;7152;48.348;10.980;2023-05-07T13:34:57;28.60;88.80
14144;DHT22;7152;48.348;10.980;2023-05-07T13:37:23;28.70;88.60
14144;DHT22;7152;48.348;10.980;2023-05-07T13:39:48;28.80;89.30
14144;DHT22;7152;48.348;10.980;2023-05-07T13:42:14;29.00;89.60
14144;DHT22;7152;48.348;10.980;2023-05-07T13:44:40;29.20;88.60
14144;DHT22;7152;48.348;10.980;2023-05-07T13:47:05;29.50;87.90
14144;DHT22;7152;48.348;10.980;2023-05-07T13:49:31;29.60;87.20
14144;DHT22;7152;48.348;10.980;2023-05-07T13:51:57;29.70;86.60
14144;DHT22;7152;48.348;10.980;2023-05-07T13:54:22;29.90;86.90
14144;DHT22;7152;48.348;10.980;2023-05-07T13:56:48;29.90;85.60
14144;DHT22;7152;48.348;10.980;2023-05-07T13:59:13;30.10;85.90
14144;DHT22;7152;48.348;10.980;2023-05-07T14:01:40;30.10;85.20
14144;DHT22;7152;48.348;10.980;2023-05-07T14:04:05;30.20;84.50
14144;DHT22;7152;48.348;10.980;2023-05-07T14:06:31;30.10;84.80
14144;DHT22;7152;48.348;10.980;2023-05-07T14:08:56;29.90;84.80
14144;DHT22;7152;48.348;10.980;2023-05-07T14:11:23;29.80;84.40
14144;DHT22;7152;48.348;10.980;2023-05-07T14:13:49;29.60;83.60
14144;DHT22;7152;48.348;10.980;2023-05-07T14:16:15;29.60;84.30
14144;DHT22;7152;48.348;10.980;2023-05-07T14:18:40;29.40;85.10
14144;DHT22;7152;48.348;10.980;2023-05-07T14:21:06;29.20;84.20
14144;DHT22;7152;48.348;10.980;2023-05-07T14:23:32;28.90;82.90
14144;DHT22;7152;48.348;10.980;2023-05-07T14:25:58;29.00;84.40
14144;DHT22;7152;48.348;10.980;2023-05-07T14:28:23;29.10;85.40
14144;DHT22;7152;48.348;10.980;2023-05-07T14:30:49;29.10;85.20
14144;DHT22;7152;48.348;10.980;2023-05-07T14:33:15;29.10;85.30
14144;DHT22;7152;48.348;10.980;2023-05-07T14:35:40;29.10;85.10
14144;DHT22;7152;48.348;10.980;2023-05-07T14:38:06;28.90;83.10
14144;DHT22;7152;48.348;10.980;2023-05-07T14:40:32;28.80;83.70
14144;DHT22;7152;48.348;10.980;2023-05-07T14:42:57;29.00;83.80
14144;DHT22;7152;48.348;10.980;2023-05-07T14:45:23;29.10;83.90
14144;DHT22;7152;48.348;10.980;2023-05-07T14:47:49;29.20;83.70
14144;DHT22;7152;48.348;10.980;2023-05-07T14:50:14;29.20;83.10
14144;DHT22;7152;48.348;10.980;2023-05-07T14:52:40;29.30;83.90
14144;DHT22;7152;48.348;10.980;2023-05-07T14:55:06;29.20;84.00
14144;DHT22;7152;48.348;10.980;2023-05-07T14:57:31;29.20;83.90
14144;DHT22;7152;48.348;10.980;2023-05-07T15:00:01;29.10;84.00
14144;DHT22;7152;48.348;10.980;2023-05-07T15:02:26;28.90;84.80
14144;DHT22;7152;48.348;10.980;2023-05-07T15:04:52;28.70;84.50
14144;DHT22;7152;48.348;10.980;2023-05-07T15:07:18;28.60;84.60
14144;DHT22;7152;48.348;10.980;2023-05-07T15:09:44;28.30;84.60
14144;DHT22;7152;48.348;10.980;2023-05-07T15:12:11;28.20;84.00
14144;DHT22;7152;48.348;10.980;2023-05-07T15:14:37;27.90;83.10
14144;DHT22;7152;48.348;10.980;2023-05-07T15:17:03;27.90;83.30
14144;DHT22;7152;48.348;10.980;2023-05-07T15:19:29;27.60;83.10
14144;DHT22;7152;48.348;10.980;2023-05-07T15:21:58;27.40;83.40
14144;DHT22;7152;48.348;10.980;2023-05-07T15:24:30;27.30;84.20
14144;DHT22;7152;48.348;10.980;2023-05-07T15:26:56;27.00;85.10
14144;DHT22;7152;48.348;10.980;2023-05-07T15:29:23;26.70;85.30
14144;DHT22;7152;48.348;10.980;2023-05-07T15:31:50;26.40;85.80